Time;durP1;ratioP1;P1;durP2;ratioP2;P2;SDS_P1;SDS_P2;PMS_P1;PMS_P2;Temp;Humidity;BMP_temperature;BMP_pressure;BME280_temperature;BME280_humidity;BME280_pressure;Samples;Min_cycle;Max_cycle;Signal;HPM_P1;HPM_P2
2023/06/03 00:02:02;;;;;;;11.87;8.73;;;14.70;99.90;;;;;;4992061;28;20234;-75
2023/06/03 00:04:29;;;;;;;9.70;7.73;;;14.60;99.90;;;;;;4974689;28;20665;-75
2023/06/03 00:06:56;;;;;;;8.30;7.53;;;14.40;99.90;;;;;;4992330;28;20190;-75
2023/06/03 00:09:21;;;;;;;7.83;7.03;;;14.40;99.90;;;;;;4992275;28;20800;-75
2023/06/03 00:11:47;;;;;;;6.97;6.37;;;14.20;99.90;;;;;;4992752;28;20434;-75
2023/06/03 00:14:12;;;;;;;8.47;6.07;;;14.10;99.90;;;;;;4999159;28;20612;-75
2023/06/03 00:16:38;;;;;;;7.53;5.97;;;14.00;99.90;;;;;;4991575;28;20259;-75
2023/06/03 00:19:03;;;;;;;7.70;5.60;;;14.00;99.90;;;;;;4990241;28;20337;-75
2023/06/03 00:21:30;;;;;;;9.07;7.23;;;14.00;99.90;;;;;;4991673;28;20224;-75
2023/06/03 00:23:55;;;;;;;6.93;5.80;;;13.90;99.90;;;;;;4992416;28;20700;-75
2023/06/03 00:26:25;;;;;;;7.80;6.43;;;14.10;99.90;;;;;;4990536;28;20565;-75
2023/06/03 00:28:51;;;;;;;8.90;6.13;;;14.20;99.90;;;;;;4998554;28;20210;-75
2023/06/03 00:31:16;;;;;;;9.70;6.27;;;14.20;99.90;;;;;;4991568;28;20932;-75
2023/06/03 00:33:42;;;;;;;7.30;6.47;;;14.10;99.90;;;;;;4991313;28;20919;-75
2023/06/03 00:36:07;;;;;;;8.67;6.80;;;13.90;99.90;;;;;;4990978;28;20176;-75
2023/06/03 00:38:33;;;;;;;12.50;6.10;;;13.80;99.90;;;;;;4990108;28;20273;-75
2023/06/03 00:40:58;;;;;;;6.67;6.07;;;13.80;99.90;;;;;;4985711;28;20326;-75
2023/06/03 00:43:24;;;;;;;12.33;6.47;;;13.70;99.90;;;;;;4975690;28;20283;-75
2023/06/03 00:45:50;;;;;;;8.60;6.57;;;13.60;99.90;;;;;;4988480;28;20667;-75
2023/06/03 00:48:15;;;;;;;9.30;6.67;;;13.70;99.90;;;;;;4989824;28;20207;-75
2023/06/03 00:50:41;;;;;;;7.17;6.43;;;13.70;99.90;;;;;;4990377;28;20263;-75
2023/06/03 00:53:08;;;;;;;7.67;6.80;;;13.70;99.90;;;;;;4991440;28;20175;-75
2023/06/03 00:55:34;;;;;;;7.47;6.83;;;13.60;99.90;;;;;;4974831;28;20297;-75
2023/06/03 00:58:00;;;;;;;11.37;6.53;;;13.60;99.90;;;;;;4982258;28;20537;-75
2023/06/03 01:00:25;;;;;;;7.37;6.43;;;13.60;99.90;;;;;;4988322;28;20533;-75
2023/06/03 01:02:51;;;;;;;8.50;6.50;;;13.60;99.90;;;;;;4991222;28;20648;-75
2023/06/03 01:05:16;;;;;;;7.27;6.17;;;13.70;99.90;;;;;;4990612;28;20895;-75
2023/06/03 01:08:00;;;;;;;8.97;5.40;;;13.60;99.90;;;;;;4990763;28;20219;-75
2023/06/03 01:10:48;;;;;;;10.20;6.80;;;13.40;99.90;;;;;;4992968;28;20184;-75
2023/06/03 01:13:27;;;;;;;8.90;6.80;;;13.50;99.90;;;;;;4991234;28;20430;-75
2023/06/03 01:15:55;;;;;;;9.87;6.90;;;13.50;99.90;;;;;;4991114;28;20445;-75
2023/06/03 01:18:21;;;;;;;13.77;6.33;;;13.40;99.90;;;;;;4991104;28;20971;-75
2023/06/03 01:20:48;;;;;;;8.33;5.40;;;13.30;99.90;;;;;;4989962;28;20947;-75
2023/06/03 01:23:23;;;;;;;7.50;6.03;;;13.30;99.90;;;;;;4990904;28;20814;-75
2023/06/03 01:25:56;;;;;;;9.60;6.03;;;13.30;99.90;;;;;;4987922;28;20585;-75
2023/06/03 01:28:23;;;;;;;14.00;6.73;;;13.40;99.90;;;;;;4991127;28;20474;-75
2023/06/03 01:30:50;;;;;;;13.90;6.57;;;13.40;99.90;;;;;;4991008;28;20984;-75
2023/06/03 01:33:18;;;;;;;10.70;7.00;;;13.40;99.90;;;;;;4990325;28;20485;-75
2023/06/03 01:35:44;;;;;;;9.23;5.97;;;13.40;99.90;;;;;;4987593;28;20438;-75
2023/06/03 01:38:11;;;;;;;8.30;6.10;;;13.40;99.90;;;;;;4986260;28;20459;-75
2023/06/03 01:40:37;;;;;;;7.37;5.80;;;13.30;99.90;;;;;;4979998;28;20489;-75
2023/06/03 01:43:03;;;;;;;9.77;6.90;;;13.40;99.90;;;;;;4989844;28;20517;-75
2023/06/03 01:45:29;;;;;;;6.83;5.97;;;13.40;99.90;;;;;;4990832;28;20837;-75
2023/06/03 01:47:54;;;;;;;10.90;5.63;;;13.30;99.90;;;;;;4989871;28;20617;-75
2023/06/03 01:50:22;;;;;;;8.83;6.60;;;13.30;99.90;;;;;;4991141;28;20180;-75
2023/06/03 01:52:47;;;;;;;7.87;6.60;;;13.30;99.90;;;;;;4989920;28;20191;-75
2023/06/03 01:55:13;;;;;;;9.87;6.50;;;13.20;99.90;;;;;;4983326;28;20567;-75
2023/06/03 01:57:38;;;;;;;8.10;5.63;;;13.10;99.90;;;;;;4992182;28;20704;-75
2023/06/03 02:00:07;;;;;;;9.30;6.23;;;13.00;99.90;;;;;;4976434;28;20233;-75
2023/06/03 02:02:33;;;;;;;10.10;6.80;;;12.90;99.90;;;;;;4994405;28;20190;-75
2023/06/03 02:04:58;;;;;;;12.37;5.60;;;12.90;99.90;;;;;;4995068;28;20450;-75
2023/06/03 02:07:30;;;;;;;9.20;7.03;;;12.90;99.90;;;;;;4993617;28;20207;-75
2023/06/03 02:09:55;;;;;;;12.57;5.90;;;12.80;99.90;;;;;;4993440;28;20550;-75
2023/06/03 02:12:21;;;;;;;8.90;6.10;;;12.80;99.90;;;;;;4977001;28;20431;-75
2023/06/03 02:14:47;;;;;;;8.40;6.90;;;12.80;99.90;;;;;;4995049;28;20180;-75
2023/06/03 02:17:15;;;;;;;11.13;6.67;;;12.80;99.90;;;;;;4994393;28;20223;-75
2023/06/03 02:19:40;;;;;;;8.73;6.30;;;12.80;99.90;;;;;;4998849;28;20214;-75
2023/06/03 02:22:07;;;;;;;10.60;6.33;;;12.90;99.90;;;;;;4993712;28;20464;-76
2023/06/03 02:24:32;;;;;;;8.33;5.30;;;12.90;99.90;;;;;;4995059;28;20540;-76
2023/06/03 02:27:01;;;;;;;8.90;6.40;;;12.80;99.90;;;;;;4993034;28;20187;-75
2023/06/03 02:29:28;;;;;;;7.23;6.37;;;12.70;99.90;;;;;;4994381;28;20266;-75
2023/06/03 02:31:54;;;;;;;8.87;6.30;;;12.70;99.90;;;;;;4993284;28;20477;-75
2023/06/03 02:34:21;;;;;;;9.70;5.90;;;12.80;99.90;;;;;;4992358;28;20442;-75
2023/06/03 02:36:47;;;;;;;11.30;6.80;;;12.70;99.90;;;;;;4988208;28;20435;-75
2023/06/03 02:39:13;;;;;;;8.13;5.60;;;12.60;99.90;;;;;;4992499;28;20448;-76
2023/06/03 02:41:41;;;;;;;11.00;6.47;;;12.50;99.90;;;;;;4992902;28;20206;-75
2023/06/03 02:44:07;;;;;;;9.80;6.40;;;12.50;99.90;;;;;;4993078;28;20446;-75
2023/06/03 02:46:33;;;;;;;6.40;5.43;;;12.50;99.90;;;;;;4991298;28;20981;-75
2023/06/03 02:49:06;;;;;;;8.07;6.17;;;12.40;99.90;;;;;;4979155;28;20226;-75
2023/06/03 02:51:31;;;;;;;9.63;6.00;;;12.40;99.90;;;;;;4988674;28;20450;-75
2023/06/03 02:53:57;;;;;;;9.10;5.60;;;12.40;99.90;;;;;;4993043;28;20449;-76
2023/06/03 02:56:23;;;;;;;9.30;6.03;;;12.40;99.90;;;;;;4993422;28;20183;-75
2023/06/03 02:58:51;;;;;;;9.63;6.07;;;12.40;99.90;;;;;;4991587;28;20302;-75
2023/06/03 03:01:21;;;;;;;10.63;6.70;;;12.40;99.90;;;;;;4991979;28;20442;-75
2023/06/03 03:03:47;;;;;;;12.47;7.77;;;12.40;99.90;;;;;;4981443;28;20479;-76
2023/06/03 03:06:16;;;;;;;7.50;6.47;;;12.40;99.90;;;;;;4988048;28;20469;-76
2023/06/03 03:08:45;;;;;;;8.90;6.53;;;12.30;99.90;;;;;;4992868;28;20563;-75
2023/06/03 03:11:10;;;;;;;9.07;7.20;;;12.30;99.90;;;;;;4986485;28;20439;-76
2023/06/03 03:13:36;;;;;;;8.70;5.70;;;12.40;99.90;;;;;;4993973;28;20446;-75
2023/06/03 03:16:02;;;;;;;9.27;5.37;;;12.30;99.90;;;;;;4997150;28;20219;-75
2023/06/03 03:18:28;;;;;;;9.23;6.63;;;12.30;99.90;;;;;;4975776;28;20215;-76
2023/06/03 03:20:53;;;;;;;10.60;6.83;;;12.20;99.90;;;;;;4992665;28;20946;-75
2023/06/03 03:23:19;;;;;;;6.90;5.90;;;12.20;99.90;;;;;;4992581;28;20199;-75
2023/06/03 03:25:45;;;;;;;12.57;7.20;;;12.10;99.90;;;;;;4992415;28;20187;-75
2023/06/03 03:28:11;;;;;;;6.93;6.33;;;12.00;99.90;;;;;;4992570;28;20223;-75
2023/06/03 03:30:38;;;;;;;6.60;5.90;;;11.90;99.90;;;;;;4993157;28;20446;-76
2023/06/03 03:33:07;;;;;;;10.60;6.90;;;12.00;99.90;;;;;;4993372;28;20455;-75
2023/06/03 03:35:35;;;;;;;9.73;6.70;;;11.90;99.90;;;;;;4991852;28;20942;-75
2023/06/03 03:38:04;;;;;;;7.87;6.60;;;12.00;99.90;;;;;;4991971;28;20470;-75
2023/06/03 03:40:32;;;;;;;7.50;5.97;;;12.00;99.90;;;;;;4991915;28;20530;-75
2023/06/03 03:42:59;;;;;;;10.23;6.20;;;12.10;99.90;;;;;;4987271;28;20967;-76
2023/06/03 03:45:35;;;;;;;7.10;5.93;;;12.10;99.90;;;;;;4984936;28;20450;-76
2023/06/03 03:48:06;;;;;;;12.17;5.90;;;12.30;99.90;;;;;;4974684;28;20462;-75
2023/06/03 03:50:50;;;;;;;7.07;6.10;;;12.40;99.90;;;;;;4992069;28;20450;-76
2023/06/03 03:53:19;;;;;;;9.83;6.30;;;12.40;99.90;;;;;;4987738;28;20442;-76
2023/06/03 03:55:47;;;;;;;12.73;6.23;;;12.30;99.90;;;;;;4991703;28;20568;-75
2023/06/03 03:58:26;;;;;;;9.37;5.97;;;12.30;99.90;;;;;;4996439;28;20549;-74
2023/06/03 04:01:09;;;;;;;7.63;6.93;;;12.30;99.90;;;;;;4991616;28;20438;-75
2023/06/03 04:03:40;;;;;;;11.40;7.40;;;12.30;99.90;;;;;;4986868;28;20537;-75
2023/06/03 04:06:10;;;;;;;7.30;5.93;;;12.60;99.90;;;;;;4981363;28;21011;-76
2023/06/03 04:08:38;;;;;;;7.77;5.87;;;12.60;99.90;;;;;;4983356;28;20471;-76
2023/06/03 04:11:05;;;;;;;9.57;6.50;;;12.60;99.90;;;;;;4996677;28;21557;-76
2023/06/03 04:13:35;;;;;;;8.17;5.97;;;12.60;99.90;;;;;;4976207;28;20430;-76
2023/06/03 04:16:10;;;;;;;14.27;7.57;;;12.70;99.90;;;;;;4985358;28;20527;-76
2023/06/03 04:18:40;;;;;;;9.87;6.10;;;12.80;99.90;;;;;;4987872;28;20470;-76
2023/06/03 04:21:08;;;;;;;9.83;7.80;;;12.80;99.90;;;;;;4989755;28;20443;-76
2023/06/03 04:23:34;;;;;;;6.83;6.13;;;12.90;99.90;;;;;;4988164;28;20789;-76
2023/06/03 04:25:59;;;;;;;9.00;6.20;;;13.20;99.90;;;;;;4991540;28;20445;-76
2023/06/03 04:28:25;;;;;;;7.97;6.47;;;13.50;99.90;;;;;;4990417;28;20212;-75
2023/06/03 04:30:50;;;;;;;9.33;7.20;;;13.60;99.90;;;;;;4992333;28;20185;-76
2023/06/03 04:33:16;;;;;;;9.70;6.67;;;13.60;99.90;;;;;;4991711;28;20198;-76
2023/06/03 04:35:41;;;;;;;11.13;6.43;;;13.70;99.90;;;;;;4997985;28;20537;-76
2023/06/03 04:38:07;;;;;;;6.83;5.63;;;13.90;99.90;;;;;;4992264;28;20202;-76
2023/06/03 04:40:33;;;;;;;7.77;7.00;;;13.90;99.90;;;;;;4991731;28;20195;-75
2023/06/03 04:43:03;;;;;;;8.60;6.60;;;14.10;99.90;;;;;;4990943;28;20649;-75
2023/06/03 04:45:31;;;;;;;10.80;6.10;;;14.20;99.90;;;;;;4991528;28;20439;-76
2023/06/03 04:48:01;;;;;;;7.27;6.57;;;14.30;99.90;;;;;;4990173;28;20566;-76
2023/06/03 04:50:27;;;;;;;8.93;6.43;;;14.50;99.90;;;;;;4991677;28;20459;-76
2023/06/03 04:52:53;;;;;;;9.33;6.60;;;14.70;99.90;;;;;;4991199;28;21073;-76
2023/06/03 04:55:19;;;;;;;13.80;7.33;;;14.90;99.90;;;;;;4991111;28;20517;-75
2023/06/03 04:57:47;;;;;;;8.23;7.33;;;15.00;99.90;;;;;;4991642;28;20289;-75
2023/06/03 05:00:16;;;;;;;9.60;7.77;;;15.20;99.90;;;;;;4986925;28;20193;-75
2023/06/03 05:02:44;;;;;;;9.90;7.40;;;15.30;99.90;;;;;;4994684;28;20451;-75
2023/06/03 05:05:10;;;;;;;14.70;7.23;;;15.40;99.90;;;;;;4992456;28;21194;-75
2023/06/03 05:07:35;;;;;;;8.43;6.40;;;15.50;99.90;;;;;;4991010;28;20573;-76
2023/06/03 05:10:01;;;;;;;14.60;7.90;;;15.60;99.90;;;;;;4989782;28;20249;-75
2023/06/03 05:12:27;;;;;;;11.30;6.10;;;15.70;99.90;;;;;;4987681;28;20180;-76
2023/06/03 05:14:52;;;;;;;8.83;6.93;;;15.60;99.90;;;;;;4989790;28;20186;-75
2023/06/03 05:17:18;;;;;;;7.30;6.50;;;15.70;99.90;;;;;;4991211;28;20365;-75
2023/06/03 05:19:43;;;;;;;9.80;6.73;;;15.80;99.90;;;;;;4972314;28;20848;-75
2023/06/03 05:22:09;;;;;;;13.57;5.93;;;15.80;99.90;;;;;;4992382;28;20171;-75
2023/06/03 05:24:34;;;;;;;13.50;6.57;;;16.00;99.90;;;;;;4990433;28;20195;-76
2023/06/03 05:27:00;;;;;;;10.60;6.60;;;16.10;99.90;;;;;;4990956;28;20184;-75
2023/06/03 05:29:25;;;;;;;7.77;6.37;;;16.20;99.90;;;;;;4991939;28;20687;-75
2023/06/03 05:31:51;;;;;;;11.10;5.90;;;16.20;99.90;;;;;;4992180;28;20183;-75
2023/06/03 05:34:16;;;;;;;12.77;9.80;;;16.40;99.90;;;;;;4993428;28;20172;-75
2023/06/03 05:36:42;;;;;;;9.00;6.13;;;16.50;99.90;;;;;;4997253;28;20206;-75
2023/06/03 05:39:07;;;;;;;7.33;6.57;;;16.60;99.90;;;;;;4994224;28;20192;-75
2023/06/03 05:41:33;;;;;;;6.70;5.50;;;16.60;99.90;;;;;;4994564;28;20262;-75
2023/06/03 05:43:59;;;;;;;8.83;6.43;;;16.70;99.90;;;;;;4993803;28;20184;-75
2023/06/03 05:46:24;;;;;;;10.53;6.77;;;16.80;99.90;;;;;;4994305;28;20775;-75
2023/06/03 05:48:50;;;;;;;8.03;5.60;;;17.00;99.90;;;;;;4994346;28;20211;-75
2023/06/03 05:51:15;;;;;;;7.67;5.73;;;17.10;99.90;;;;;;4997729;28;20171;-75
2023/06/03 05:53:43;;;;;;;9.07;6.80;;;17.30;99.90;;;;;;4994158;28;20175;-75
2023/06/03 05:56:10;;;;;;;5.90;5.30;;;17.40;99.90;;;;;;4995245;28;20172;-75
2023/06/03 05:58:36;;;;;;;10.50;6.13;;;17.40;99.90;;;;;;4993476;28;20835;-75
2023/06/03 06:01:01;;;;;;;15.30;7.13;;;17.50;99.90;;;;;;4993583;28;20435;-75
2023/06/03 06:03:27;;;;;;;9.60;6.37;;;17.60;99.90;;;;;;4991399;28;20249;-75
2023/06/03 06:05:53;;;;;;;9.23;6.50;;;17.60;99.90;;;;;;4990551;28;20728;-75
2023/06/03 06:08:18;;;;;;;14.13;6.60;;;17.70;99.90;;;;;;4993338;28;20211;-75
2023/06/03 06:10:44;;;;;;;9.07;6.57;;;17.80;99.90;;;;;;4994195;28;20493;-75
2023/06/03 06:13:09;;;;;;;6.37;5.73;;;17.80;99.90;;;;;;4993009;28;20299;-75
2023/06/03 06:15:35;;;;;;;7.07;6.13;;;17.90;99.90;;;;;;4986744;28;20207;-75
2023/06/03 06:18:00;;;;;;;8.80;6.53;;;18.10;99.90;;;;;;4994412;28;20211;-75
2023/06/03 06:20:26;;;;;;;8.87;5.40;;;18.10;99.90;;;;;;4994288;28;20595;-75
2023/06/03 06:22:52;;;;;;;10.13;6.63;;;18.20;99.90;;;;;;4994375;28;20188;-75
2023/06/03 06:25:18;;;;;;;8.60;6.03;;;18.30;99.90;;;;;;4992969;28;20676;-75
2023/06/03 06:27:44;;;;;;;10.27;7.50;;;18.30;99.90;;;;;;4994732;28;20470;-75
2023/06/03 06:30:11;;;;;;;12.60;7.57;;;18.40;99.90;;;;;;4981795;28;20180;-75
2023/06/03 06:32:49;;;;;;;14.67;9.47;;;18.40;99.90;;;;;;4991102;28;20176;-74
2023/06/03 06:35:19;;;;;;;10.93;6.43;;;18.50;99.90;;;;;;4993893;28;20458;-75
2023/06/03 06:37:46;;;;;;;6.47;5.80;;;18.60;99.90;;;;;;4994496;28;20544;-75
2023/06/03 06:40:17;;;;;;;7.97;5.67;;;18.70;99.90;;;;;;4990589;28;20488;-75
2023/06/03 06:42:43;;;;;;;9.53;6.17;;;18.90;99.90;;;;;;4992733;28;20438;-75
2023/06/03 06:45:20;;;;;;;10.23;6.70;;;18.90;99.90;;;;;;4990454;28;20470;-75
2023/06/03 06:47:46;;;;;;;7.43;6.70;;;19.10;99.90;;;;;;4985579;28;20210;-75
2023/06/03 06:50:43;;;;;;;11.20;6.27;;;19.20;99.90;;;;;;4992866;28;20747;-75
2023/06/03 06:53:09;;;;;;;13.67;6.90;;;19.30;99.90;;;;;;4975870;28;20180;-75
2023/06/03 06:55:41;;;;;;;10.33;7.07;;;19.40;99.90;;;;;;4993998;28;20451;-75
2023/06/03 06:58:09;;;;;;;8.40;6.20;;;19.50;99.90;;;;;;4991718;28;20203;-75
2023/06/03 07:00:34;;;;;;;9.67;6.17;;;19.60;99.90;;;;;;4992793;28;20442;-75
2023/06/03 07:03:00;;;;;;;13.63;6.67;;;19.80;99.90;;;;;;4991292;28;20815;-75
2023/06/03 07:05:26;;;;;;;8.20;6.07;;;20.10;99.90;;;;;;4986887;28;20250;-75
2023/06/03 07:07:52;;;;;;;11.10;6.60;;;20.30;99.90;;;;;;4993130;28;20211;-75
2023/06/03 07:10:21;;;;;;;9.13;5.50;;;20.30;99.90;;;;;;4993421;28;20439;-75
2023/06/03 07:12:51;;;;;;;10.10;5.90;;;20.40;99.90;;;;;;4992500;28;20183;-75
2023/06/03 07:15:17;;;;;;;9.57;6.03;;;20.40;99.90;;;;;;4987010;28;20434;-76
2023/06/03 07:17:42;;;;;;;10.93;7.10;;;20.30;99.90;;;;;;4993021;28;20532;-75
2023/06/03 07:20:17;;;;;;;11.20;5.90;;;20.30;99.90;;;;;;4992677;28;20266;-76
2023/06/03 07:22:42;;;;;;;11.83;6.43;;;20.40;99.90;;;;;;4992587;28;20206;-75
2023/06/03 07:25:08;;;;;;;8.40;5.30;;;20.70;99.90;;;;;;4992575;28;20462;-76
2023/06/03 07:27:34;;;;;;;10.00;5.93;;;20.80;99.60;;;;;;4977792;28;20229;-76
2023/06/03 07:30:00;;;;;;;6.83;5.90;;;21.00;99.30;;;;;;4990836;28;20230;-76
2023/06/03 07:32:26;;;;;;;8.03;5.60;;;21.10;98.60;;;;;;4993187;28;20176;-75
2023/06/03 07:34:52;;;;;;;8.70;6.60;;;21.00;98.90;;;;;;4993120;28;20457;-76
2023/06/03 07:37:17;;;;;;;7.10;5.90;;;21.10;98.90;;;;;;4991016;28;20647;-76
2023/06/03 07:39:43;;;;;;;9.30;6.30;;;21.30;98.00;;;;;;4983871;28;20215;-75
2023/06/03 07:42:20;;;;;;;8.87;6.40;;;21.20;98.80;;;;;;4991960;28;20183;-76
2023/06/03 07:44:48;;;;;;;7.00;5.80;;;21.50;97.90;;;;;;4990192;28;20206;-68
2023/06/03 07:47:15;;;;;;;6.73;5.77;;;21.60;97.00;;;;;;4990107;28;20497;-70
2023/06/03 07:49:48;;;;;;;8.63;5.90;;;21.60;97.40;;;;;;4982358;28;20430;-69
2023/06/03 07:52:20;;;;;;;9.13;6.77;;;21.70;96.80;;;;;;4989081;28;20951;-70
2023/06/03 07:54:47;;;;;;;10.17;6.50;;;21.70;96.30;;;;;;4998204;28;20569;-70
2023/06/03 07:57:16;;;;;;;9.00;6.70;;;21.90;96.60;;;;;;4991261;28;20963;-69
2023/06/03 07:59:55;;;;;;;9.00;6.77;;;22.10;95.70;;;;;;4992579;28;20434;-70
2023/06/03 08:02:21;;;;;;;7.93;6.33;;;22.20;96.00;;;;;;4992746;28;20967;-70
2023/06/03 08:04:47;;;;;;;7.80;5.17;;;22.20;95.30;;;;;;4990324;28;20955;-70
2023/06/03 08:07:13;;;;;;;6.03;5.43;;;22.10;95.90;;;;;;4987072;28;20463;-69
2023/06/03 08:09:40;;;;;;;8.00;7.20;;;22.30;95.60;;;;;;4989354;28;20310;-70
2023/06/03 08:12:07;;;;;;;10.07;6.90;;;22.50;95.10;;;;;;4984154;28;20473;-70
2023/06/03 08:14:38;;;;;;;9.37;7.30;;;22.40;94.80;;;;;;4987750;28;20439;-70
2023/06/03 08:17:12;;;;;;;6.83;6.23;;;22.50;94.90;;;;;;4992227;28;20951;-70
2023/06/03 08:19:38;;;;;;;11.70;8.30;;;22.70;94.60;;;;;;4991646;28;20493;-69
2023/06/03 08:22:14;;;;;;;7.83;6.33;;;22.80;94.20;;;;;;4987352;28;20446;-69
2023/06/03 08:24:41;;;;;;;8.53;7.10;;;22.90;94.20;;;;;;4984527;28;20434;-70
2023/06/03 08:27:06;;;;;;;10.80;7.30;;;23.00;93.60;;;;;;4987860;28;20462;-69
2023/06/03 08:29:32;;;;;;;5.90;5.40;;;23.20;92.80;;;;;;4990080;28;20500;-69
2023/06/03 08:31:57;;;;;;;10.23;7.60;;;23.30;92.80;;;;;;4990161;28;20219;-69
2023/06/03 08:34:23;;;;;;;9.50;6.13;;;23.20;93.20;;;;;;4989163;28;20179;-70
2023/06/03 08:36:49;;;;;;;7.87;6.60;;;23.40;92.20;;;;;;4989426;28;20270;-69
2023/06/03 08:39:15;;;;;;;8.57;6.70;;;23.50;92.20;;;;;;4991915;28;20458;-70
2023/06/03 08:41:42;;;;;;;10.10;6.50;;;23.50;91.60;;;;;;4991040;28;20175;-69
2023/06/03 08:44:42;;;;;;;9.40;7.30;;;23.70;91.90;;;;;;4986554;28;20192;-69
2023/06/03 08:47:41;;;;;;;9.63;6.80;;;24.10;90.90;;;;;;4982076;28;20465;-69
2023/06/03 08:50:10;;;;;;;6.90;6.17;;;24.30;90.30;;;;;;4939831;28;20919;-70
2023/06/03 08:52:38;;;;;;;8.10;6.10;;;24.40;89.80;;;;;;4987141;28;20477;-70
2023/06/03 08:55:06;;;;;;;7.47;6.20;;;24.50;90.30;;;;;;4984707;28;20435;-69
2023/06/03 08:57:40;;;;;;;7.37;6.20;;;24.60;88.70;;;;;;4983303;28;20994;-70
2023/06/03 09:00:07;;;;;;;11.43;7.00;;;24.60;88.50;;;;;;4991807;28;20442;-70
2023/06/03 09:02:34;;;;;;;7.80;7.00;;;25.00;88.30;;;;;;4990455;28;20464;-70
2023/06/03 09:05:03;;;;;;;6.93;6.23;;;25.20;85.80;;;;;;4992094;28;20439;-70
2023/06/03 09:07:31;;;;;;;13.30;6.80;;;25.30;85.40;;;;;;4990115;28;20466;-69
2023/06/03 09:09:58;;;;;;;9.47;7.50;;;25.20;85.60;;;;;;4991559;28;20477;-69
2023/06/03 09:12:26;;;;;;;7.67;6.77;;;25.30;84.50;;;;;;4991511;28;20466;-70
2023/06/03 09:14:53;;;;;;;9.50;6.00;;;25.50;84.40;;;;;;4995683;28;20499;-69
2023/06/03 09:17:19;;;;;;;8.00;6.67;;;26.00;83.60;;;;;;4984978;28;20470;-70
2023/06/03 09:19:46;;;;;;;7.27;6.33;;;26.50;81.50;;;;;;4991611;28;20492;-69
2023/06/03 09:22:13;;;;;;;7.00;6.30;;;26.70;80.60;;;;;;4990249;28;20176;-70
2023/06/03 09:24:38;;;;;;;8.43;7.60;;;26.80;79.00;;;;;;4991490;28;20469;-69
2023/06/03 09:27:04;;;;;;;9.70;6.70;;;26.90;78.70;;;;;;4990176;28;20430;-70
2023/06/03 09:29:30;;;;;;;7.20;6.50;;;26.80;78.20;;;;;;4991060;28;20191;-69
2023/06/03 09:31:57;;;;;;;7.43;5.80;;;26.80;78.20;;;;;;4989467;28;20439;-70
2023/06/03 09:34:22;;;;;;;9.90;6.47;;;27.30;78.40;;;;;;4991640;28;20223;-70
2023/06/03 09:36:48;;;;;;;7.53;6.70;;;27.50;75.40;;;;;;4991541;28;20474;-70
2023/06/03 09:39:17;;;;;;;11.40;6.97;;;27.40;74.30;;;;;;4991282;28;20191;-70
2023/06/03 09:41:44;;;;;;;7.07;6.37;;;27.40;75.90;;;;;;4990868;28;20441;-70
2023/06/03 09:44:10;;;;;;;7.23;6.53;;;27.70;75.20;;;;;;4990322;28;20434;-70
2023/06/03 09:46:36;;;;;;;9.90;7.03;;;28.10;72.60;;;;;;4990023;28;20451;-70
2023/06/03 09:49:12;;;;;;;8.03;7.00;;;28.50;70.50;;;;;;4990323;28;20457;-70
2023/06/03 09:51:43;;;;;;;8.10;6.33;;;28.50;70.10;;;;;;4991533;28;20444;-70
2023/06/03 09:54:17;;;;;;;9.17;6.70;;;28.60;67.90;;;;;;4989316;28;20540;-70
2023/06/03 09:56:47;;;;;;;10.97;7.60;;;28.70;69.00;;;;;;4991458;28;20446;-70
2023/06/03 09:59:23;;;;;;;7.20;6.57;;;29.40;67.80;;;;;;4990735;28;20442;-70
2023/06/03 10:01:52;;;;;;;7.37;6.67;;;30.00;66.40;;;;;;4990449;28;20920;-70
2023/06/03 10:04:36;;;;;;;8.80;7.03;;;30.20;64.00;;;;;;4990540;28;20545;-69
2023/06/03 10:07:13;;;;;;;11.97;6.77;;;30.30;63.80;;;;;;4992299;28;20536;-70
2023/06/03 10:09:47;;;;;;;8.00;7.20;;;31.20;63.40;;;;;;4988206;28;20441;-70
2023/06/03 10:12:28;;;;;;;6.87;6.20;;;31.40;60.80;;;;;;4984093;28;20444;-70
2023/06/03 10:14:55;;;;;;;8.27;6.47;;;31.80;59.30;;;;;;4991903;28;20426;-70
2023/06/03 10:17:21;;;;;;;8.90;7.03;;;31.90;58.90;;;;;;4994667;28;20536;-70
2023/06/03 10:19:47;;;;;;;8.07;7.20;;;32.30;57.40;;;;;;4991358;28;21092;-70
2023/06/03 10:22:18;;;;;;;9.83;7.87;;;33.00;56.20;;;;;;4994927;28;20172;-70
2023/06/03 10:24:46;;;;;;;9.30;6.63;;;33.30;54.70;;;;;;4994212;28;20535;-70
2023/06/03 10:27:14;;;;;;;12.30;6.97;;;33.60;53.80;;;;;;4993143;28;20462;-70
2023/06/03 10:29:40;;;;;;;13.77;6.43;;;34.10;52.60;;;;;;4992875;28;20442;-70
2023/06/03 10:32:08;;;;;;;11.13;7.80;;;33.70;52.70;;;;;;4994691;28;20506;-70
2023/06/03 10:34:41;;;;;;;8.43;7.60;;;34.60;50.90;;;;;;4992856;28;20442;-70
2023/06/03 10:37:08;;;;;;;6.77;6.20;;;35.20;49.80;;;;;;4994057;28;20450;-70
2023/06/03 10:39:34;;;;;;;8.07;6.67;;;35.10;48.60;;;;;;4992575;28;20438;-68
2023/06/03 10:42:01;;;;;;;9.27;7.17;;;35.70;41.90;;;;;;4994475;28;20485;-68
2023/06/03 10:44:28;;;;;;;7.40;6.80;;;36.10;40.50;;;;;;4993656;28;20183;-68
2023/06/03 10:47:08;;;;;;;7.37;6.67;;;35.70;40.20;;;;;;4994151;28;20996;-68
2023/06/03 10:49:41;;;;;;;6.67;6.10;;;35.10;40.40;;;;;;4990522;28;20430;-68
2023/06/03 10:52:48;;;;;;;7.27;6.70;;;36.30;40.10;;;;;;4995687;28;20433;-68
2023/06/03 10:55:42;;;;;;;12.87;7.27;;;37.10;38.20;;;;;;4993372;28;20931;-68
2023/06/03 10:58:14;;;;;;;9.27;6.80;;;36.70;38.10;;;;;;4986174;28;20469;-68
2023/06/03 11:01:01;;;;;;;8.80;8.00;;;37.60;37.10;;;;;;4994243;28;20797;-68
2023/06/03 11:03:31;;;;;;;14.00;7.57;;;37.90;36.60;;;;;;4992247;28;20473;-68
2023/06/03 11:06:18;;;;;;;6.73;6.10;;;38.20;35.50;;;;;;4993953;28;20442;-69
2023/06/03 11:09:08;;;;;;;7.23;6.63;;;38.40;34.90;;;;;;4989657;28;20462;-68
2023/06/03 11:11:44;;;;;;;8.50;7.10;;;38.80;34.50;;;;;;4992762;28;20446;-68
2023/06/03 11:14:38;;;;;;;7.20;6.43;;;38.60;33.50;;;;;;4985782;28;20434;-68
2023/06/03 11:17:03;;;;;;;7.77;6.37;;;38.80;33.70;;;;;;4993504;28;20955;-68
2023/06/03 11:19:44;;;;;;;9.73;7.00;;;39.30;32.60;;;;;;4992728;28;20529;-68
2023/06/03 11:22:10;;;;;;;6.97;6.33;;;39.60;32.10;;;;;;4986047;28;20187;-68
2023/06/03 11:24:39;;;;;;;9.10;6.93;;;39.40;32.00;;;;;;4993104;28;20505;-68
2023/06/03 11:27:13;;;;;;;7.90;7.20;;;40.10;31.20;;;;;;4992918;28;20438;-68
2023/06/03 11:29:48;;;;;;;7.90;7.30;;;40.90;30.10;;;;;;4991356;28;20449;-69
2023/06/03 11:32:25;;;;;;;9.37;8.37;;;39.70;30.60;;;;;;4991256;28;20434;-68
2023/06/03 11:35:14;;;;;;;7.33;6.73;;;40.10;30.30;;;;;;4992241;28;20430;-68
2023/06/03 11:37:40;;;;;;;8.60;7.60;;;39.20;30.40;;;;;;4992718;28;20537;-69
2023/06/03 11:40:20;;;;;;;7.07;6.23;;;40.00;30.30;;;;;;4992368;28;21051;-68
2023/06/03 11:43:05;;;;;;;6.87;6.37;;;40.20;29.60;;;;;;4993013;28;20190;-68
2023/06/03 11:45:32;;;;;;;7.50;6.90;;;40.90;29.70;;;;;;4991983;28;20585;-68
2023/06/03 11:48:05;;;;;;;8.20;7.43;;;41.00;29.20;;;;;;4992848;28;20470;-68
2023/06/03 11:50:47;;;;;;;6.87;6.37;;;42.20;29.20;;;;;;4992664;28;20443;-67
2023/06/03 11:53:35;;;;;;;7.50;6.90;;;41.90;28.50;;;;;;4986465;28;20557;-67
2023/06/03 11:56:03;;;;;;;7.83;7.03;;;41.20;28.90;;;;;;4985415;28;20960;-67
2023/06/03 11:58:28;;;;;;;7.87;7.27;;;41.70;28.50;;;;;;4992906;28;20830;-67
2023/06/03 12:01:05;;;;;;;8.27;7.07;;;42.10;28.10;;;;;;4992586;28;20445;-66
2023/06/03 12:03:31;;;;;;;7.50;6.73;;;42.90;27.80;;;;;;4992311;28;20218;-67
2023/06/03 12:05:57;;;;;;;7.83;7.10;;;43.20;27.50;;;;;;4991704;28;20494;-67
2023/06/03 12:08:22;;;;;;;8.37;7.57;;;42.70;27.40;;;;;;4991942;28;20203;-68
2023/06/03 12:10:48;;;;;;;7.20;6.60;;;41.30;28.20;;;;;;4992585;28;20450;-68
2023/06/03 12:13:14;;;;;;;7.03;6.43;;;41.30;29.10;;;;;;4992533;28;20550;-67
2023/06/03 12:15:49;;;;;;;8.13;7.63;;;39.80;29.20;;;;;;4992413;28;20191;-68
2023/06/03 12:18:14;;;;;;;7.00;6.50;;;40.10;30.00;;;;;;4985178;28;20222;-67
2023/06/03 12:20:40;;;;;;;7.67;6.87;;;41.50;29.60;;;;;;4992927;28;20418;-67
2023/06/03 12:23:06;;;;;;;7.70;7.10;;;40.40;29.50;;;;;;4993118;28;20175;-67
2023/06/03 12:25:36;;;;;;;7.60;6.90;;;38.30;30.70;;;;;;4991333;28;20659;-67
2023/06/03 12:28:24;;;;;;;7.30;6.73;;;39.00;31.00;;;;;;4992162;28;20465;-67
2023/06/03 12:30:50;;;;;;;7.60;7.00;;;40.40;29.70;;;;;;4990306;28;20488;-67
2023/06/03 12:33:17;;;;;;;7.80;7.10;;;41.30;29.40;;;;;;4984808;28;20522;-67
2023/06/03 12:35:56;;;;;;;8.40;6.60;;;43.10;26.50;;;;;;4991395;28;20746;-67
2023/06/03 12:38:23;;;;;;;7.77;7.13;;;44.20;26.20;;;;;;4991294;28;20461;-67
2023/06/03 12:40:49;;;;;;;7.37;6.67;;;40.20;26.50;;;;;;4992399;28;20998;-67
2023/06/03 12:43:21;;;;;;;7.87;7.13;;;40.50;28.10;;;;;;4992761;28;20577;-68
2023/06/03 12:45:48;;;;;;;7.13;6.63;;;41.80;28.00;;;;;;4995668;28;20191;-67
2023/06/03 12:48:30;;;;;;;7.83;7.23;;;42.50;27.50;;;;;;4991731;28;20493;-67
2023/06/03 12:50:56;;;;;;;7.83;7.13;;;43.20;27.10;;;;;;4991296;28;20435;-67
2023/06/03 12:53:22;;;;;;;7.37;6.87;;;42.70;27.10;;;;;;4974984;28;20499;-67
2023/06/03 12:55:47;;;;;;;7.53;6.83;;;43.00;27.30;;;;;;4992566;28;20175;-67